• Join FlightAware (Why Join?)
  • Login
  • US Flag 
Rudolph Flight #1: Arrived! 
02:57AM EST


 

Airport Tracker/Info


-or-


 

Live Flight TrackerFlight Track Log ✈ N534M ✈ 04-May-2012 ✈ KEAU - KDPA

Flight Track Log - Related Links

Times and Time Zones

All times are in EDT time to prevent confusion due to time zone crossing. See the N534M flight status page for this flight to view local times or setup timezone preferences in your user account.

Time Position Orientation Groundspeed Altitude Reporting Facility
EDT Latitude Longitude Course Direction KTS MPH feet Rate Location/Type
07:12AM 44.8272 -91.3992 150° Southeast 282 325 4,400  Level Minneapolis Center
07:13AM 44.7828 -91.3625 149° Southeast 224 258 6,000 1,740 Climbing Minneapolis Center
07:14AM 44.7364 -91.3233 147° Southeast 197 227 7,900 1,620 Climbing Minneapolis Center
07:15AM 44.7003 -91.2897 150° Southeast 184 212 9,300 1,560 Climbing Minneapolis Center
07:16AM 44.6517 -91.2506 146° Southeast 195 224 11,100 1,740 Climbing Minneapolis Center
07:17AM 44.6069 -91.2086 146° Southeast 189 217 12,800 1,620 Climbing Minneapolis Center
07:18AM 44.5625 -91.1667 150° Southeast 189 217 14,400 1,560 Climbing Minneapolis Center
07:19AM 44.5117 -91.1250 147° Southeast 201 231 16,000 1,200 Climbing Minneapolis Center
07:20AM 44.4564 -91.0750 148° Southeast 225 259 16,800 420 Climbing Minneapolis Center
07:21AM 44.3864 -91.0139 147° Southeast 253 291 16,900 60 Climbing Minneapolis Center
07:22AM 44.3183 -90.9528 149° Southeast 286 329 17,000  Climbing Minneapolis Center
07:24AM 44.1561 -90.8192 147° Southeast 296 341 17,000  Level Chicago Center
07:25AM 44.0839 -90.7539 149° Southeast 301 346 17,000  Level Chicago Center
07:26AM 44.0097 -90.6917 148° Southeast 312 359 17,000  Level Chicago Center
07:27AM 43.9375 -90.6294 146° Southeast 312 359 17,100  Climbing Chicago Center
07:28AM 43.8653 -90.5619 149° Southeast 312 359 17,000 -60 Descending Chicago Center
07:29AM 43.7911 -90.5000 148° Southeast 317 365 17,000  Level Chicago Center
07:30AM 43.7167 -90.4353 149° Southeast 317 365 17,000  Level Chicago Center
07:31AM 43.6422 -90.3739 147° Southeast 317 365 17,000  Level Chicago Center
07:32AM 43.5719 -90.3097 150° Southeast 311 358 17,000  Level Chicago Center
07:33AM 43.5014 -90.2542 148° Southeast 319 367 17,100  Climbing Chicago Center
07:34AM 43.4311 -90.1931 149° Southeast 313 360 17,100 -60 Level Chicago Center
07:35AM 43.3564 -90.1322 149° Southeast 313 360 17,000 -60 Descending Chicago Center
07:36AM 43.2839 -90.0714 148° Southeast 313 360 17,000  Level Chicago Center
07:37AM 43.2136 -90.0106 149° Southeast 308 354 17,000  Level Chicago Center
07:38AM 43.1431 -89.9531 149° Southeast 303 349 17,000  Level Chicago Center
07:39AM 43.0725 -89.8956 148° Southeast 302 348 17,000 -60 Level Chicago Center
07:40AM 43.0017 -89.8353 148° Southeast 302 348 16,900 -540 Descending Chicago Center
07:41AM 42.9269 -89.7722 150° Southeast 302 348 16,000 -900 Descending Chicago Center
07:42AM 42.8522 -89.7122 149° Southeast 313 360 15,200 -540 Descending Chicago Center
07:43AM 42.7836 -89.6553 149° Southeast 307 353 15,000 -120 Descending Chicago Center
07:44AM 42.7108 -89.5956 148° Southeast 301 346 15,000 -300 Level Chicago Center
07:45AM 42.6381 -89.5333 150° Southeast 301 346 14,400 -600 Descending Chicago Center
07:46AM 42.5650 -89.4767 144° Southeast 301 346 13,800 -660 Descending Chicago Center
07:47AM 42.4942 -89.4061 141° Southeast 311 358 13,100 -900 Descending Chicago Center
07:48AM 42.4256 -89.3303 144° Southeast 316 364 12,100 -900 Descending Chicago Center
07:49AM 42.3567 -89.2628 141° Southeast 316 364 11,300 -1,080 Descending Chicago Center
07:50AM 42.2942 -89.1956 144° Southeast 300 345 10,000 -1,620 Descending Chicago Center
07:51AM 42.2314 -89.1339 142° Southeast 286 329 8,100 -1,920 Descending Chicago Center
07:52AM 42.1708 -89.0697 143° Southeast 286 329 6,200 -1,500 Descending Chicago Center
07:53AM 42.1103 -89.0083 134° Southeast 275 316 5,100 -360 Descending Chicago Center
07:56AM 41.9833 -88.8333 103° East 260 299 5,100  Level Chicago TRACON
07:57AM 41.9667 -88.7333 105° East 261 300 5,100 -60 Level Chicago TRACON
07:58AM 41.9500 -88.6500 109° East 262 302 5,000 -420 Descending Chicago TRACON
07:59AM 41.9333 -88.5833 118° Southeast 258 297 4,400 -960 Descending Chicago TRACON
08:00AM 41.9000 -88.5000 103° East 237 273 3,200 -960 Descending Chicago TRACON
08:01AM 41.8833 -88.4000 90° East 223 257 2,500 -360 Descending Chicago TRACON
08:02AM 41.8833 -88.3333 114° Southeast 179 206 2,500 -420 Level Chicago TRACON
08:03AM 41.8667 -88.2833 114° Southeast 151 174 1,700 -840 Descending Chicago TRACON